sensor_id;sensor_type;location;lat;lon;timestamp;pressure;altitude;pressure_sealevel;temperature;humidity
70546;BME280;58098;51.680;5.134;2023-04-27T00:00:03;102167.97;;;3.57;100.00
70546;BME280;58098;51.680;5.134;2023-04-27T00:02:32;102150.22;;;3.47;100.00
70546;BME280;58098;51.680;5.134;2023-04-27T00:04:57;102165.69;;;3.47;100.00
70546;BME280;58098;51.680;5.134;2023-04-27T00:07:22;102169.88;;;3.51;100.00
70546;BME280;58098;51.680;5.134;2023-04-27T00:09:48;102158.03;;;3.44;100.00
70546;BME280;58098;51.680;5.134;2023-04-27T00:12:13;102175.97;;;3.48;100.00
70546;BME280;58098;51.680;5.134;2023-04-27T00:14:38;102171.84;;;3.43;100.00
70546;BME280;58098;51.680;5.134;2023-04-27T00:17:04;102169.34;;;3.40;100.00
70546;BME280;58098;51.680;5.134;2023-04-27T00:19:29;102169.50;;;3.33;100.00
70546;BME280;58098;51.680;5.134;2023-04-27T00:21:55;102175.50;;;3.34;100.00
70546;BME280;58098;51.680;5.134;2023-04-27T00:24:22;102164.69;;;3.21;100.00
70546;BME280;58098;51.680;5.134;2023-04-27T00:26:47;102169.59;;;3.30;100.00
70546;BME280;58098;51.680;5.134;2023-04-27T00:29:12;102162.06;;;3.23;100.00
70546;BME280;58098;51.680;5.134;2023-04-27T00:31:38;102167.44;;;3.15;100.00
70546;BME280;58098;51.680;5.134;2023-04-27T00:34:03;102161.47;;;3.13;100.00
70546;BME280;58098;51.680;5.134;2023-04-27T00:36:29;102145.44;;;3.02;100.00
70546;BME280;58098;51.680;5.134;2023-04-27T00:38:54;102169.16;;;3.15;100.00
70546;BME280;58098;51.680;5.134;2023-04-27T00:41:19;102169.41;;;3.06;100.00
70546;BME280;58098;51.680;5.134;2023-04-27T00:43:47;102165.47;;;2.93;100.00
70546;BME280;58098;51.680;5.134;2023-04-27T00:46:13;102164.66;;;2.91;100.00
70546;BME280;58098;51.680;5.134;2023-04-27T00:48:39;102161.22;;;2.90;100.00
70546;BME280;58098;51.680;5.134;2023-04-27T00:51:05;102138.31;;;2.80;100.00
70546;BME280;58098;51.680;5.134;2023-04-27T00:53:31;102146.81;;;2.83;100.00
70546;BME280;58098;51.680;5.134;2023-04-27T00:55:56;102148.59;;;2.81;100.00
70546;BME280;58098;51.680;5.134;2023-04-27T00:58:22;102138.53;;;2.72;100.00
70546;BME280;58098;51.680;5.134;2023-04-27T01:00:48;102157.03;;;2.86;100.00
70546;BME280;58098;51.680;5.134;2023-04-27T01:03:13;102160.59;;;2.82;100.00
70546;BME280;58098;51.680;5.134;2023-04-27T01:05:39;102153.00;;;2.76;100.00
70546;BME280;58098;51.680;5.134;2023-04-27T01:08:05;102153.88;;;2.75;100.00
70546;BME280;58098;51.680;5.134;2023-04-27T01:10:31;102139.53;;;2.66;100.00
70546;BME280;58098;51.680;5.134;2023-04-27T01:12:56;102157.38;;;2.74;100.00
70546;BME280;58098;51.680;5.134;2023-04-27T01:15:21;102158.22;;;2.73;100.00
70546;BME280;58098;51.680;5.134;2023-04-27T01:17:47;102153.13;;;2.72;100.00
70546;BME280;58098;51.680;5.134;2023-04-27T01:20:12;102155.75;;;2.70;100.00
70546;BME280;58098;51.680;5.134;2023-04-27T01:22:38;102147.44;;;2.59;100.00
70546;BME280;58098;51.680;5.134;2023-04-27T01:25:04;102140.75;;;2.52;100.00
70546;BME280;58098;51.680;5.134;2023-04-27T01:27:30;102151.06;;;2.52;100.00
70546;BME280;58098;51.680;5.134;2023-04-27T01:29:56;102145.84;;;2.53;100.00
70546;BME280;58098;51.680;5.134;2023-04-27T01:32:21;102145.16;;;2.47;100.00
70546;BME280;58098;51.680;5.134;2023-04-27T01:34:46;102130.78;;;2.38;100.00
70546;BME280;58098;51.680;5.134;2023-04-27T01:37:12;102125.84;;;2.29;100.00
70546;BME280;58098;51.680;5.134;2023-04-27T01:39:37;102134.28;;;2.36;100.00
70546;BME280;58098;51.680;5.134;2023-04-27T01:42:02;102137.81;;;2.32;100.00
70546;BME280;58098;51.680;5.134;2023-04-27T01:44:28;102133.63;;;2.28;100.00
70546;BME280;58098;51.680;5.134;2023-04-27T01:46:54;102132.03;;;2.22;100.00
70546;BME280;58098;51.680;5.134;2023-04-27T01:49:19;102113.38;;;2.13;100.00
70546;BME280;58098;51.680;5.134;2023-04-27T01:51:44;102116.13;;;2.07;100.00
70546;BME280;58098;51.680;5.134;2023-04-27T01:54:10;102126.19;;;2.16;100.00
70546;BME280;58098;51.680;5.134;2023-04-27T01:56:35;102139.13;;;2.13;100.00
70546;BME280;58098;51.680;5.134;2023-04-27T01:59:00;102105.22;;;1.95;100.00
70546;BME280;58098;51.680;5.134;2023-04-27T02:01:26;102117.03;;;2.03;100.00
70546;BME280;58098;51.680;5.134;2023-04-27T02:03:52;102118.88;;;1.97;100.00
70546;BME280;58098;51.680;5.134;2023-04-27T02:06:17;102112.16;;;1.92;100.00
70546;BME280;58098;51.680;5.134;2023-04-27T02:08:42;102124.88;;;1.99;100.00
70546;BME280;58098;51.680;5.134;2023-04-27T02:11:08;102113.09;;;1.89;100.00
70546;BME280;58098;51.680;5.134;2023-04-27T02:13:33;102119.78;;;1.95;100.00
70546;BME280;58098;51.680;5.134;2023-04-27T02:15:58;102127.56;;;1.93;100.00
70546;BME280;58098;51.680;5.134;2023-04-27T02:18:26;102129.28;;;1.93;100.00
70546;BME280;58098;51.680;5.134;2023-04-27T02:20:52;102101.31;;;1.79;100.00
70546;BME280;58098;51.680;5.134;2023-04-27T02:23:17;102123.38;;;1.88;100.00
70546;BME280;58098;51.680;5.134;2023-04-27T02:25:42;102098.72;;;1.79;100.00
70546;BME280;58098;51.680;5.134;2023-04-27T02:28:11;102096.09;;;1.82;100.00
70546;BME280;58098;51.680;5.134;2023-04-27T02:30:36;102106.28;;;1.85;100.00
70546;BME280;58098;51.680;5.134;2023-04-27T02:33:01;102099.59;;;1.78;100.00
70546;BME280;58098;51.680;5.134;2023-04-27T02:35:27;102095.44;;;1.73;100.00
70546;BME280;58098;51.680;5.134;2023-04-27T02:37:52;102090.28;;;1.73;100.00
70546;BME280;58098;51.680;5.134;2023-04-27T02:40:17;102114.09;;;1.82;100.00
70546;BME280;58098;51.680;5.134;2023-04-27T02:42:43;102088.53;;;1.75;100.00
70546;BME280;58098;51.680;5.134;2023-04-27T02:45:08;102108.97;;;1.82;100.00
70546;BME280;58098;51.680;5.134;2023-04-27T02:47:34;102106.66;;;1.70;100.00
70546;BME280;58098;51.680;5.134;2023-04-27T02:50:00;102121.16;;;1.73;100.00
70546;BME280;58098;51.680;5.134;2023-04-27T02:52:26;102104.25;;;1.61;100.00
70546;BME280;58098;51.680;5.134;2023-04-27T02:54:51;102110.38;;;1.57;100.00
70546;BME280;58098;51.680;5.134;2023-04-27T02:57:17;102111.22;;;1.58;100.00
70546;BME280;58098;51.680;5.134;2023-04-27T02:59:42;102097.66;;;1.50;100.00
70546;BME280;58098;51.680;5.134;2023-04-27T03:02:07;102101.97;;;1.49;100.00
70546;BME280;58098;51.680;5.134;2023-04-27T03:04:33;102091.88;;;1.40;100.00
70546;BME280;58098;51.680;5.134;2023-04-27T03:07:01;102108.75;;;1.52;100.00
70546;BME280;58098;51.680;5.134;2023-04-27T03:09:26;102099.44;;;1.46;100.00
70546;BME280;58098;51.680;5.134;2023-04-27T03:11:51;102106.28;;;1.47;100.00
70546;BME280;58098;51.680;5.134;2023-04-27T03:14:17;102095.25;;;1.42;100.00
70546;BME280;58098;51.680;5.134;2023-04-27T03:16:42;102107.16;;;1.46;100.00
70546;BME280;58098;51.680;5.134;2023-04-27T03:19:07;102117.53;;;1.43;100.00
70546;BME280;58098;51.680;5.134;2023-04-27T03:21:33;102098.91;;;1.32;100.00
70546;BME280;58098;51.680;5.134;2023-04-27T03:23:58;102114.97;;;1.43;100.00
70546;BME280;58098;51.680;5.134;2023-04-27T03:26:23;102127.00;;;1.41;100.00
70546;BME280;58098;51.680;5.134;2023-04-27T03:28:49;102129.53;;;1.43;100.00
70546;BME280;58098;51.680;5.134;2023-04-27T03:31:14;102124.50;;;1.38;100.00
70546;BME280;58098;51.680;5.134;2023-04-27T03:33:40;102117.69;;;1.34;100.00
70546;BME280;58098;51.680;5.134;2023-04-27T03:36:07;102113.47;;;1.31;100.00
70546;BME280;58098;51.680;5.134;2023-04-27T03:38:33;102125.41;;;1.36;100.00
70546;BME280;58098;51.680;5.134;2023-04-27T03:40:59;102122.84;;;1.34;100.00
70546;BME280;58098;51.680;5.134;2023-04-27T03:43:25;102126.31;;;1.33;100.00
70546;BME280;58098;51.680;5.134;2023-04-27T03:45:51;102095.72;;;1.21;100.00
70546;BME280;58098;51.680;5.134;2023-04-27T03:48:17;102114.47;;;1.26;100.00
70546;BME280;58098;51.680;5.134;2023-04-27T03:50:43;102116.22;;;1.24;100.00
70546;BME280;58098;51.680;5.134;2023-04-27T03:53:09;102126.41;;;1.28;100.00
70546;BME280;58098;51.680;5.134;2023-04-27T03:55:39;102124.75;;;1.24;100.00
70546;BME280;58098;51.680;5.134;2023-04-27T03:58:05;102102.75;;;1.10;100.00
70546;BME280;58098;51.680;5.134;2023-04-27T04:00:30;102123.19;;;1.17;100.00
70546;BME280;58098;51.680;5.134;2023-04-27T04:02:56;102118.94;;;1.15;100.00
70546;BME280;58098;51.680;5.134;2023-04-27T04:05:21;102125.84;;;1.13;100.00
70546;BME280;58098;51.680;5.134;2023-04-27T04:07:47;102137.69;;;1.21;100.00
70546;BME280;58098;51.680;5.134;2023-04-27T04:10:12;102133.38;;;1.22;100.00
70546;BME280;58098;51.680;5.134;2023-04-27T04:12:37;102139.34;;;1.24;100.00
70546;BME280;58098;51.680;5.134;2023-04-27T04:15:03;102115.50;;;1.16;100.00
70546;BME280;58098;51.680;5.134;2023-04-27T04:17:29;102132.44;;;1.26;100.00
70546;BME280;58098;51.680;5.134;2023-04-27T04:19:54;102129.13;;;1.19;100.00
70546;BME280;58098;51.680;5.134;2023-04-27T04:22:19;102136.69;;;1.28;100.00
70546;BME280;58098;51.680;5.134;2023-04-27T04:24:45;102125.69;;;1.20;100.00
70546;BME280;58098;51.680;5.134;2023-04-27T04:27:11;102147.78;;;1.30;100.00
70546;BME280;58098;51.680;5.134;2023-04-27T04:29:36;102131.56;;;1.27;100.00
70546;BME280;58098;51.680;5.134;2023-04-27T04:32:03;102145.16;;;1.32;100.00
70546;BME280;58098;51.680;5.134;2023-04-27T04:34:28;102146.72;;;1.39;100.00
70546;BME280;58098;51.680;5.134;2023-04-27T04:36:54;102132.31;;;1.32;100.00
70546;BME280;58098;51.680;5.134;2023-04-27T04:39:21;102149.19;;;1.45;100.00
70546;BME280;58098;51.680;5.134;2023-04-27T04:41:48;102150.84;;;1.48;100.00
70546;BME280;58098;51.680;5.134;2023-04-27T04:44:14;102158.47;;;1.52;100.00
70546;BME280;58098;51.680;5.134;2023-04-27T04:46:40;102152.47;;;1.53;100.00
70546;BME280;58098;51.680;5.134;2023-04-27T04:49:05;102155.00;;;1.55;100.00
70546;BME280;58098;51.680;5.134;2023-04-27T04:51:31;102135.38;;;1.49;100.00
70546;BME280;58098;51.680;5.134;2023-04-27T04:53:56;102146.38;;;1.57;100.00
70546;BME280;58098;51.680;5.134;2023-04-27T04:56:22;102143.75;;;1.60;100.00
70546;BME280;58098;51.680;5.134;2023-04-27T04:58:47;102140.22;;;1.64;100.00
70546;BME280;58098;51.680;5.134;2023-04-27T05:01:13;102151.25;;;1.69;100.00
70546;BME280;58098;51.680;5.134;2023-04-27T05:03:38;102153.78;;;1.72;100.00
70546;BME280;58098;51.680;5.134;2023-04-27T05:06:03;102168.03;;;1.85;100.00
70546;BME280;58098;51.680;5.134;2023-04-27T05:08:29;102151.94;;;1.77;100.00
70546;BME280;58098;51.680;5.134;2023-04-27T05:10:54;102162.78;;;1.90;100.00
70546;BME280;58098;51.680;5.134;2023-04-27T05:13:20;102157.63;;;1.91;100.00
70546;BME280;58098;51.680;5.134;2023-04-27T05:15:46;102159.31;;;1.92;100.00
70546;BME280;58098;51.680;5.134;2023-04-27T05:18:11;102155.00;;;1.94;100.00
70546;BME280;58098;51.680;5.134;2023-04-27T05:20:37;102147.19;;;1.97;100.00
70546;BME280;58098;51.680;5.134;2023-04-27T05:23:03;102165.78;;;2.10;100.00
70546;BME280;58098;51.680;5.134;2023-04-27T05:25:32;102168.22;;;2.16;100.00
70546;BME280;58098;51.680;5.134;2023-04-27T05:27:58;102152.84;;;2.13;100.00
70546;BME280;58098;51.680;5.134;2023-04-27T05:30:24;102149.31;;;2.17;100.00
70546;BME280;58098;51.680;5.134;2023-04-27T05:32:49;102161.16;;;2.24;100.00
70546;BME280;58098;51.680;5.134;2023-04-27T05:35:15;102158.50;;;2.29;100.00
70546;BME280;58098;51.680;5.134;2023-04-27T05:37:40;102172.03;;;2.37;100.00
70546;BME280;58098;51.680;5.134;2023-04-27T05:40:06;102180.47;;;2.42;100.00
70546;BME280;58098;51.680;5.134;2023-04-27T05:42:34;102172.03;;;2.37;100.00
70546;BME280;58098;51.680;5.134;2023-04-27T05:44:59;102163.44;;;2.36;100.00
70546;BME280;58098;51.680;5.134;2023-04-27T05:47:25;102176.81;;;2.52;100.00
70546;BME280;58098;51.680;5.134;2023-04-27T05:49:53;102161.50;;;2.46;100.00
70546;BME280;58098;51.680;5.134;2023-04-27T05:52:19;102162.97;;;2.56;100.00
70546;BME280;58098;51.680;5.134;2023-04-27T05:54:47;102186.56;;;2.75;100.00
70546;BME280;58098;51.680;5.134;2023-04-27T05:57:13;102174.31;;;2.83;100.00
70546;BME280;58098;51.680;5.134;2023-04-27T05:59:39;102174.19;;;2.87;100.00
70546;BME280;58098;51.680;5.134;2023-04-27T06:02:05;102182.44;;;3.01;100.00
70546;BME280;58098;51.680;5.134;2023-04-27T06:04:30;102162.69;;;3.00;100.00
70546;BME280;58098;51.680;5.134;2023-04-27T06:06:57;102174.25;;;3.18;100.00
70546;BME280;58098;51.680;5.134;2023-04-27T06:09:22;102169.72;;;3.26;100.00
70546;BME280;58098;51.680;5.134;2023-04-27T06:11:48;102182.16;;;3.43;100.00
70546;BME280;58098;51.680;5.134;2023-04-27T06:14:13;102172.44;;;3.52;100.00
70546;BME280;58098;51.680;5.134;2023-04-27T06:16:39;102182.06;;;3.75;100.00
70546;BME280;58098;51.680;5.134;2023-04-27T06:19:05;102173.28;;;3.82;100.00
70546;BME280;58098;51.680;5.134;2023-04-27T06:21:32;102174.41;;;4.01;100.00
70546;BME280;58098;51.680;5.134;2023-04-27T06:23:57;102168.09;;;4.11;100.00
70546;BME280;58098;51.680;5.134;2023-04-27T06:26:23;102169.97;;;4.32;100.00
70546;BME280;58098;51.680;5.134;2023-04-27T06:28:48;102179.69;;;4.52;100.00
70546;BME280;58098;51.680;5.134;2023-04-27T06:31:13;102181.81;;;4.65;100.00
70546;BME280;58098;51.680;5.134;2023-04-27T06:33:39;102181.25;;;4.82;100.00
70546;BME280;58098;51.680;5.134;2023-04-27T06:36:05;102181.59;;;4.98;100.00
70546;BME280;58098;51.680;5.134;2023-04-27T06:38:30;102184.44;;;5.15;100.00
70546;BME280;58098;51.680;5.134;2023-04-27T06:40:56;102183.13;;;5.28;100.00
70546;BME280;58098;51.680;5.134;2023-04-27T06:43:22;102185.28;;;5.40;100.00
70546;BME280;58098;51.680;5.134;2023-04-27T06:45:47;102172.41;;;5.60;100.00
70546;BME280;58098;51.680;5.134;2023-04-27T06:48:12;102182.16;;;5.77;100.00
70546;BME280;58098;51.680;5.134;2023-04-27T06:50:37;102173.25;;;5.85;100.00
70546;BME280;58098;51.680;5.134;2023-04-27T06:53:03;102164.25;;;5.94;100.00
70546;BME280;58098;51.680;5.134;2023-04-27T06:55:28;102167.03;;;6.11;100.00
70546;BME280;58098;51.680;5.134;2023-04-27T06:57:53;102161.25;;;6.26;100.00
70546;BME280;58098;51.680;5.134;2023-04-27T07:00:19;102168.34;;;6.43;100.00
70546;BME280;58098;51.680;5.134;2023-04-27T07:02:45;102158.78;;;6.45;100.00
70546;BME280;58098;51.680;5.134;2023-04-27T07:05:10;102174.34;;;6.65;100.00
70546;BME280;58098;51.680;5.134;2023-04-27T07:07:35;102159.56;;;6.67;100.00
70546;BME280;58098;51.680;5.134;2023-04-27T07:10:06;102177.22;;;6.99;100.00
70546;BME280;58098;51.680;5.134;2023-04-27T07:12:35;102174.09;;;7.11;100.00
70546;BME280;58098;51.680;5.134;2023-04-27T07:15:01;102166.94;;;7.37;100.00
70546;BME280;58098;51.680;5.134;2023-04-27T07:17:28;102172.22;;;7.54;100.00
70546;BME280;58098;51.680;5.134;2023-04-27T07:19:53;102157.53;;;7.53;100.00
70546;BME280;58098;51.680;5.134;2023-04-27T07:22:20;102159.97;;;7.76;100.00
70546;BME280;58098;51.680;5.134;2023-04-27T07:24:46;102159.94;;;7.94;100.00
70546;BME280;58098;51.680;5.134;2023-04-27T07:27:11;102160.53;;;8.18;100.00
70546;BME280;58098;51.680;5.134;2023-04-27T07:29:37;102151.44;;;8.45;100.00
70546;BME280;58098;51.680;5.134;2023-04-27T07:32:07;102160.47;;;8.73;100.00
70546;BME280;58098;51.680;5.134;2023-04-27T07:34:32;102148.56;;;8.69;100.00
70546;BME280;58098;51.680;5.134;2023-04-27T07:36:58;102163.59;;;8.96;100.00
70546;BME280;58098;51.680;5.134;2023-04-27T07:39:24;102172.22;;;9.14;100.00
70546;BME280;58098;51.680;5.134;2023-04-27T07:41:50;102154.75;;;9.16;100.00
70546;BME280;58098;51.680;5.134;2023-04-27T07:44:16;102166.94;;;9.48;100.00
70546;BME280;58098;51.680;5.134;2023-04-27T07:46:42;102173.81;;;9.49;100.00
70546;BME280;58098;51.680;5.134;2023-04-27T07:49:08;102172.94;;;9.81;100.00
70546;BME280;58098;51.680;5.134;2023-04-27T07:51:33;102174.88;;;9.93;100.00
70546;BME280;58098;51.680;5.134;2023-04-27T07:53:59;102184.56;;;9.91;100.00
70546;BME280;58098;51.680;5.134;2023-04-27T07:56:26;102157.47;;;10.10;100.00
70546;BME280;58098;51.680;5.134;2023-04-27T07:58:51;102177.22;;;10.45;100.00
70546;BME280;58098;51.680;5.134;2023-04-27T08:01:16;102184.59;;;10.68;100.00
70546;BME280;58098;51.680;5.134;2023-04-27T08:03:42;102181.28;;;10.94;100.00
70546;BME280;58098;51.680;5.134;2023-04-27T08:06:07;102179.16;;;11.01;100.00
70546;BME280;58098;51.680;5.134;2023-04-27T08:08:32;102179.84;;;11.33;100.00
70546;BME280;58098;51.680;5.134;2023-04-27T08:10:57;102168.56;;;11.46;100.00
70546;BME280;58098;51.680;5.134;2023-04-27T08:13:23;102200.47;;;11.51;100.00
70546;BME280;58098;51.680;5.134;2023-04-27T08:15:49;102193.66;;;11.49;100.00
70546;BME280;58098;51.680;5.134;2023-04-27T08:18:14;102189.34;;;11.62;100.00
70546;BME280;58098;51.680;5.134;2023-04-27T08:20:42;102183.41;;;11.74;100.00
70546;BME280;58098;51.680;5.134;2023-04-27T08:23:07;102172.75;;;11.77;100.00
70546;BME280;58098;51.680;5.134;2023-04-27T08:25:35;102168.88;;;11.97;100.00
70546;BME280;58098;51.680;5.134;2023-04-27T08:28:00;102158.25;;;12.39;100.00
70546;BME280;58098;51.680;5.134;2023-04-27T08:30:26;102152.97;;;12.53;100.00
70546;BME280;58098;51.680;5.134;2023-04-27T08:32:51;102139.97;;;12.51;100.00
70546;BME280;58098;51.680;5.134;2023-04-27T08:35:18;102157.63;;;12.75;100.00
70546;BME280;58098;51.680;5.134;2023-04-27T08:37:44;102163.94;;;12.85;100.00
70546;BME280;58098;51.680;5.134;2023-04-27T08:40:09;102172.31;;;13.02;100.00
70546;BME280;58098;51.680;5.134;2023-04-27T08:42:35;102154.09;;;13.01;100.00
70546;BME280;58098;51.680;5.134;2023-04-27T08:45:01;102145.50;;;13.24;100.00
70546;BME280;58098;51.680;5.134;2023-04-27T08:47:26;102166.59;;;13.35;100.00
70546;BME280;58098;51.680;5.134;2023-04-27T08:49:51;102165.09;;;13.56;100.00
70546;BME280;58098;51.680;5.134;2023-04-27T08:52:17;102133.25;;;13.73;100.00
70546;BME280;58098;51.680;5.134;2023-04-27T08:54:42;102156.84;;;14.10;100.00
70546;BME280;58098;51.680;5.134;2023-04-27T08:57:12;102161.81;;;14.38;100.00
70546;BME280;58098;51.680;5.134;2023-04-27T08:59:38;102155.66;;;14.50;100.00
70546;BME280;58098;51.680;5.134;2023-04-27T09:02:04;102162.19;;;14.44;100.00
70546;BME280;58098;51.680;5.134;2023-04-27T09:04:39;102150.63;;;14.47;100.00
70546;BME280;58098;51.680;5.134;2023-04-27T09:07:22;102172.16;;;14.63;100.00
70546;BME280;58098;51.680;5.134;2023-04-27T09:09:48;102167.03;;;14.73;100.00
70546;BME280;58098;51.680;5.134;2023-04-27T09:12:18;102170.22;;;15.00;100.00
70546;BME280;58098;51.680;5.134;2023-04-27T09:14:57;102164.16;;;15.10;100.00
70546;BME280;58098;51.680;5.134;2023-04-27T09:17:25;102162.81;;;15.05;100.00
70546;BME280;58098;51.680;5.134;2023-04-27T09:20:02;102152.88;;;14.86;100.00
70546;BME280;58098;51.680;5.134;2023-04-27T09:22:29;102150.63;;;15.26;100.00
70546;BME280;58098;51.680;5.134;2023-04-27T09:24:55;102160.38;;;15.48;100.00
70546;BME280;58098;51.680;5.134;2023-04-27T09:27:21;102151.25;;;15.30;100.00
70546;BME280;58098;51.680;5.134;2023-04-27T09:29:47;102150.28;;;15.42;100.00
70546;BME280;58098;51.680;5.134;2023-04-27T09:32:13;102158.66;;;15.36;100.00
70546;BME280;58098;51.680;5.134;2023-04-27T09:34:40;102152.81;;;15.32;100.00
70546;BME280;58098;51.680;5.134;2023-04-27T09:37:06;102144.91;;;15.43;100.00
70546;BME280;58098;51.680;5.134;2023-04-27T09:39:31;102152.94;;;15.53;100.00
70546;BME280;58098;51.680;5.134;2023-04-27T09:41:57;102134.63;;;15.73;100.00
70546;BME280;58098;51.680;5.134;2023-04-27T09:44:23;102143.75;;;16.12;100.00
70546;BME280;58098;51.680;5.134;2023-04-27T09:46:50;102139.69;;;16.08;100.00
70546;BME280;58098;51.680;5.134;2023-04-27T09:49:17;102136.78;;;16.22;100.00
70546;BME280;58098;51.680;5.134;2023-04-27T09:51:43;102128.16;;;16.20;100.00
70546;BME280;58098;51.680;5.134;2023-04-27T09:54:10;102130.94;;;16.39;100.00
70546;BME280;58098;51.680;5.134;2023-04-27T09:57:04;102139.16;;;16.78;100.00
70546;BME280;58098;51.680;5.134;2023-04-27T09:59:52;102140.50;;;16.93;100.00
70546;BME280;58098;51.680;5.134;2023-04-27T10:02:21;102132.13;;;16.46;88.62
70546;BME280;58098;51.680;5.134;2023-04-27T10:05:15;102139.69;;;16.72;100.00
70546;BME280;58098;51.680;5.134;2023-04-27T10:07:48;102142.50;;;16.80;100.00
70546;BME280;58098;51.680;5.134;2023-04-27T10:10:17;102138.00;;;16.71;91.50
70546;BME280;58098;51.680;5.134;2023-04-27T10:12:42;102141.75;;;16.89;100.00
70546;BME280;58098;51.680;5.134;2023-04-27T10:15:26;102133.94;;;16.87;96.11
70546;BME280;58098;51.680;5.134;2023-04-27T10:17:52;102134.41;;;16.72;94.43
70546;BME280;58098;51.680;5.134;2023-04-27T10:20:35;102141.09;;;17.27;100.00
70546;BME280;58098;51.680;5.134;2023-04-27T10:23:01;102138.16;;;16.99;88.78
70546;BME280;58098;51.680;5.134;2023-04-27T10:25:28;102154.13;;;17.28;100.00
70546;BME280;58098;51.680;5.134;2023-04-27T10:27:54;102144.63;;;17.16;83.19
70546;BME280;58098;51.680;5.134;2023-04-27T10:30:25;102142.69;;;17.48;100.00
70546;BME280;58098;51.680;5.134;2023-04-27T10:32:55;102145.31;;;17.69;100.00
70546;BME280;58098;51.680;5.134;2023-04-27T10:35:31;102134.22;;;17.45;87.29
70546;BME280;58098;51.680;5.134;2023-04-27T10:38:08;102133.28;;;18.05;100.00
70546;BME280;58098;51.680;5.134;2023-04-27T10:40:35;102126.53;;;17.72;85.03
70546;BME280;58098;51.680;5.134;2023-04-27T10:43:11;102126.59;;;17.91;96.19
70546;BME280;58098;51.680;5.134;2023-04-27T10:45:37;102127.66;;;17.79;97.34
70546;BME280;58098;51.680;5.134;2023-04-27T10:48:03;102126.03;;;17.88;86.13
70546;BME280;58098;51.680;5.134;2023-04-27T10:50:29;102127.13;;;17.85;70.71
70546;BME280;58098;51.680;5.134;2023-04-27T10:53:02;102100.31;;;17.99;97.41
70546;BME280;58098;51.680;5.134;2023-04-27T10:55:28;102111.03;;;17.98;82.96
70546;BME280;58098;51.680;5.134;2023-04-27T10:57:55;102095.03;;;18.09;86.99
70546;BME280;58098;51.680;5.134;2023-04-27T11:00:25;102091.84;;;18.34;92.64
70546;BME280;58098;51.680;5.134;2023-04-27T11:02:52;102099.59;;;18.64;97.07
70546;BME280;58098;51.680;5.134;2023-04-27T11:05:25;102105.06;;;18.53;76.52
70546;BME280;58098;51.680;5.134;2023-04-27T11:08:04;102090.72;;;18.56;100.00
70546;BME280;58098;51.680;5.134;2023-04-27T11:10:31;102090.84;;;18.16;74.12
70546;BME280;58098;51.680;5.134;2023-04-27T11:12:56;102082.25;;;18.14;97.14
70546;BME280;58098;51.680;5.134;2023-04-27T11:15:22;102091.16;;;18.22;80.65
70546;BME280;58098;51.680;5.134;2023-04-27T11:17:47;102086.84;;;18.02;64.29
70546;BME280;58098;51.680;5.134;2023-04-27T11:20:13;102084.75;;;18.25;100.00
70546;BME280;58098;51.680;5.134;2023-04-27T11:22:44;102083.19;;;18.61;88.43
70546;BME280;58098;51.680;5.134;2023-04-27T11:25:10;102075.66;;;18.75;87.60
70546;BME280;58098;51.680;5.134;2023-04-27T11:27:37;102080.88;;;18.94;100.00
70546;BME280;58098;51.680;5.134;2023-04-27T11:30:03;102080.34;;;18.81;76.08
70546;BME280;58098;51.680;5.134;2023-04-27T11:32:29;102067.25;;;18.89;63.12
70546;BME280;58098;51.680;5.134;2023-04-27T11:34:55;102073.47;;;19.35;90.01
70546;BME280;58098;51.680;5.134;2023-04-27T11:37:22;102070.22;;;19.13;75.27
70546;BME280;58098;51.680;5.134;2023-04-27T11:39:48;102067.13;;;18.81;62.75
70546;BME280;58098;51.680;5.134;2023-04-27T11:42:22;102070.66;;;19.09;66.36
70546;BME280;58098;51.680;5.134;2023-04-27T11:44:55;102072.97;;;19.22;69.24
70546;BME280;58098;51.680;5.134;2023-04-27T11:47:22;102075.97;;;18.99;56.11
70546;BME280;58098;51.680;5.134;2023-04-27T11:49:48;102071.75;;;19.43;73.30
70546;BME280;58098;51.680;5.134;2023-04-27T11:52:14;102073.75;;;19.32;55.81
70546;BME280;58098;51.680;5.134;2023-04-27T11:54:52;102061.22;;;19.61;62.02
70546;BME280;58098;51.680;5.134;2023-04-27T11:57:23;102065.66;;;20.13;90.46
70546;BME280;58098;51.680;5.134;2023-04-27T11:59:50;102064.81;;;20.13;61.04
70546;BME280;58098;51.680;5.134;2023-04-27T12:02:16;102060.44;;;20.21;60.54
70546;BME280;58098;51.680;5.134;2023-04-27T12:04:42;102046.97;;;19.97;47.02
70546;BME280;58098;51.680;5.134;2023-04-27T12:07:08;102053.72;;;20.27;58.11
70546;BME280;58098;51.680;5.134;2023-04-27T12:09:33;102039.81;;;20.51;56.08
70546;BME280;58098;51.680;5.134;2023-04-27T12:11:58;102044.47;;;20.57;50.52
70546;BME280;58098;51.680;5.134;2023-04-27T12:14:24;102043.66;;;20.56;44.18
70546;BME280;58098;51.680;5.134;2023-04-27T12:16:50;102048.19;;;20.64;44.60
70546;BME280;58098;51.680;5.134;2023-04-27T12:19:15;102045.25;;;20.23;47.88
70546;BME280;58098;51.680;5.134;2023-04-27T12:21:41;102038.22;;;21.33;70.28
70546;BME280;58098;51.680;5.134;2023-04-27T12:24:06;102038.63;;;21.62;56.72
70546;BME280;58098;51.680;5.134;2023-04-27T12:26:32;102028.72;;;22.29;65.78
70546;BME280;58098;51.680;5.134;2023-04-27T12:28:57;102019.25;;;21.94;40.89
70546;BME280;58098;51.680;5.134;2023-04-27T12:31:22;102037.22;;;21.92;39.04
70546;BME280;58098;51.680;5.134;2023-04-27T12:33:49;102033.88;;;22.06;43.89
70546;BME280;58098;51.680;5.134;2023-04-27T12:36:16;102007.94;;;22.08;39.39
70546;BME280;58098;51.680;5.134;2023-04-27T12:38:41;102021.19;;;21.76;41.89
70546;BME280;58098;51.680;5.134;2023-04-27T12:41:07;102025.34;;;22.51;47.35
70546;BME280;58098;51.680;5.134;2023-04-27T12:43:32;102019.09;;;22.91;44.79